Terminal Aerodrome Forecast
Issued by NWS

Home | Current Version | Previous Version | Text Only | Print | Product List | Glossary On
Versions: 1 2 3 4 5 6 7 8 9 10 11 12 13 14 15
969
FTUS46 KSEW 261411 AAA
TAFBFI
TAF AMD
KBFI 261411Z 2614/2712 15009KT 6SM -SHRA SCT012 OVC020
      TEMPO 2614/2618 3SM -RASN OVC012
     FM261900 VRB03KT P6SM VCSH OVC030
     FM262100 34007KT P6SM BKN040
     FM270300 34007KT P6SM SCT045
     FM271100 33005KT P6SM BKN035=

USA.gov is the U.S. government's official web portal to all federal, state and local government web resources and services.